sensor_id;sensor_type;location;lat;lon;timestamp;pressure;altitude;pressure_sealevel;temperature;humidity
26807;BME280;14380;49.910;6.792;2022-09-09T00:02:13;98268.59;;;15.69;100.00
26807;BME280;14380;49.910;6.792;2022-09-09T00:04:45;98268.03;;;15.65;100.00
26807;BME280;14380;49.910;6.792;2022-09-09T00:07:21;98271.81;;;15.72;100.00
26807;BME280;14380;49.910;6.792;2022-09-09T00:10:00;98267.81;;;15.57;100.00
26807;BME280;14380;49.910;6.792;2022-09-09T00:12:36;98262.94;;;15.62;100.00
26807;BME280;14380;49.910;6.792;2022-09-09T00:15:12;98261.38;;;15.59;100.00
26807;BME280;14380;49.910;6.792;2022-09-09T00:17:45;98260.28;;;15.62;100.00
26807;BME280;14380;49.910;6.792;2022-09-09T00:20:18;98261.19;;;15.72;100.00
26807;BME280;14380;49.910;6.792;2022-09-09T00:22:55;98254.63;;;15.55;100.00
26807;BME280;14380;49.910;6.792;2022-09-09T00:25:29;98246.13;;;15.40;100.00
26807;BME280;14380;49.910;6.792;2022-09-09T00:28:00;98244.75;;;15.46;100.00
26807;BME280;14380;49.910;6.792;2022-09-09T00:30:32;98236.19;;;15.42;100.00
26807;BME280;14380;49.910;6.792;2022-09-09T00:33:10;98243.19;;;15.43;100.00
26807;BME280;14380;49.910;6.792;2022-09-09T00:35:44;98245.41;;;15.38;100.00
26807;BME280;14380;49.910;6.792;2022-09-09T00:38:14;98245.56;;;15.58;100.00
26807;BME280;14380;49.910;6.792;2022-09-09T00:40:46;98239.13;;;15.60;100.00
26807;BME280;14380;49.910;6.792;2022-09-09T00:43:27;98256.25;;;15.46;100.00
26807;BME280;14380;49.910;6.792;2022-09-09T00:46:39;98246.91;;;15.52;100.00
26807;BME280;14380;49.910;6.792;2022-09-09T00:49:14;98253.06;;;15.53;100.00
26807;BME280;14380;49.910;6.792;2022-09-09T00:51:49;98256.78;;;15.61;100.00
26807;BME280;14380;49.910;6.792;2022-09-09T00:54:36;98262.41;;;15.68;100.00
26807;BME280;14380;49.910;6.792;2022-09-09T00:57:13;98265.34;;;15.65;100.00
26807;BME280;14380;49.910;6.792;2022-09-09T00:59:47;98267.09;;;15.76;100.00
26807;BME280;14380;49.910;6.792;2022-09-09T01:02:26;98269.00;;;15.85;100.00
26807;BME280;14380;49.910;6.792;2022-09-09T01:04:55;98270.78;;;15.85;100.00
26807;BME280;14380;49.910;6.792;2022-09-09T01:07:27;98266.09;;;15.88;100.00
26807;BME280;14380;49.910;6.792;2022-09-09T01:09:59;98273.13;;;15.89;100.00
26807;BME280;14380;49.910;6.792;2022-09-09T01:12:38;98266.41;;;15.95;100.00
26807;BME280;14380;49.910;6.792;2022-09-09T01:15:12;98274.25;;;15.97;100.00
26807;BME280;14380;49.910;6.792;2022-09-09T01:17:50;98269.38;;;16.02;100.00
26807;BME280;14380;49.910;6.792;2022-09-09T01:20:23;98272.09;;;15.90;100.00
26807;BME280;14380;49.910;6.792;2022-09-09T01:23:02;98267.31;;;16.05;100.00
26807;BME280;14380;49.910;6.792;2022-09-09T01:26:02;98269.00;;;15.85;100.00
26807;BME280;14380;49.910;6.792;2022-09-09T01:28:32;98265.88;;;15.80;100.00
26807;BME280;14380;49.910;6.792;2022-09-09T01:31:03;98264.97;;;15.91;100.00
26807;BME280;14380;49.910;6.792;2022-09-09T01:33:30;98252.91;;;16.18;100.00
26807;BME280;14380;49.910;6.792;2022-09-09T01:36:00;98257.63;;;16.04;100.00
26807;BME280;14380;49.910;6.792;2022-09-09T01:38:31;98260.16;;;16.06;100.00
26807;BME280;14380;49.910;6.792;2022-09-09T01:41:00;98265.50;;;16.16;100.00
26807;BME280;14380;49.910;6.792;2022-09-09T01:43:28;98268.06;;;16.17;100.00
26807;BME280;14380;49.910;6.792;2022-09-09T01:45:56;98269.56;;;16.10;100.00
26807;BME280;14380;49.910;6.792;2022-09-09T01:48:25;98266.00;;;16.00;100.00
26807;BME280;14380;49.910;6.792;2022-09-09T01:50:52;98261.75;;;15.87;100.00
26807;BME280;14380;49.910;6.792;2022-09-09T01:53:20;98269.22;;;16.25;100.00
26807;BME280;14380;49.910;6.792;2022-09-09T01:55:55;98274.41;;;15.95;100.00
26807;BME280;14380;49.910;6.792;2022-09-09T01:58:34;98273.69;;;16.24;100.00
26807;BME280;14380;49.910;6.792;2022-09-09T02:01:10;98270.78;;;15.85;100.00
26807;BME280;14380;49.910;6.792;2022-09-09T02:03:44;98269.56;;;16.10;100.00
26807;BME280;14380;49.910;6.792;2022-09-09T02:06:22;98267.09;;;16.18;100.00
26807;BME280;14380;49.910;6.792;2022-09-09T02:09:10;98261.72;;;16.09;100.00
26807;BME280;14380;49.910;6.792;2022-09-09T02:11:40;98267.22;;;15.96;100.00
26807;BME280;14380;49.910;6.792;2022-09-09T02:14:14;98270.81;;;16.06;100.00
26807;BME280;14380;49.910;6.792;2022-09-09T02:16:47;98264.75;;;16.04;100.00
26807;BME280;14380;49.910;6.792;2022-09-09T02:19:21;98265.28;;;15.98;100.00
26807;BME280;14380;49.910;6.792;2022-09-09T02:21:52;98263.47;;;15.98;100.00
26807;BME280;14380;49.910;6.792;2022-09-09T02:24:21;98256.50;;;15.86;100.00
26807;BME280;14380;49.910;6.792;2022-09-09T02:26:51;98254.19;;;15.93;100.00
26807;BME280;14380;49.910;6.792;2022-09-09T02:29:24;98253.41;;;16.02;100.00
26807;BME280;14380;49.910;6.792;2022-09-09T02:31:52;98252.22;;;15.95;100.00
26807;BME280;14380;49.910;6.792;2022-09-09T02:34:22;98253.34;;;15.92;100.00
26807;BME280;14380;49.910;6.792;2022-09-09T02:36:50;98257.00;;;15.91;100.00
26807;BME280;14380;49.910;6.792;2022-09-09T02:39:19;98251.19;;;15.86;100.00
26807;BME280;14380;49.910;6.792;2022-09-09T02:41:46;98246.13;;;16.04;100.00
26807;BME280;14380;49.910;6.792;2022-09-09T02:44:14;98249.56;;;15.95;100.00
26807;BME280;14380;49.910;6.792;2022-09-09T02:47:00;98238.72;;;16.08;100.00
26807;BME280;14380;49.910;6.792;2022-09-09T02:49:37;98243.59;;;15.81;100.00
26807;BME280;14380;49.910;6.792;2022-09-09T02:52:08;98236.25;;;15.95;100.00
26807;BME280;14380;49.910;6.792;2022-09-09T02:54:42;98239.47;;;15.88;100.00
26807;BME280;14380;49.910;6.792;2022-09-09T02:57:11;98238.28;;;16.02;100.00
26807;BME280;14380;49.910;6.792;2022-09-09T02:59:38;98238.66;;;15.98;100.00
26807;BME280;14380;49.910;6.792;2022-09-09T03:02:07;98246.00;;;16.05;100.00
26807;BME280;14380;49.910;6.792;2022-09-09T03:04:36;98234.41;;;16.16;100.00
26807;BME280;14380;49.910;6.792;2022-09-09T03:07:03;98244.69;;;16.00;100.00
26807;BME280;14380;49.910;6.792;2022-09-09T03:09:30;98248.53;;;16.07;100.00
26807;BME280;14380;49.910;6.792;2022-09-09T03:11:58;98245.38;;;15.92;100.00
26807;BME280;14380;49.910;6.792;2022-09-09T03:14:25;98249.50;;;16.06;100.00
26807;BME280;14380;49.910;6.792;2022-09-09T03:16:52;98245.78;;;16.18;100.00
26807;BME280;14380;49.910;6.792;2022-09-09T03:19:20;98239.94;;;16.25;100.00
26807;BME280;14380;49.910;6.792;2022-09-09T03:21:47;98240.78;;;16.04;100.00
26807;BME280;14380;49.910;6.792;2022-09-09T03:24:14;98240.91;;;16.24;100.00
26807;BME280;14380;49.910;6.792;2022-09-09T03:26:42;98242.97;;;16.20;100.00
26807;BME280;14380;49.910;6.792;2022-09-09T03:29:10;98236.78;;;16.10;100.00
26807;BME280;14380;49.910;6.792;2022-09-09T03:31:37;98237.06;;;16.16;100.00
26807;BME280;14380;49.910;6.792;2022-09-09T03:34:04;98241.25;;;16.09;100.00
26807;BME280;14380;49.910;6.792;2022-09-09T03:36:32;98244.47;;;16.13;100.00
26807;BME280;14380;49.910;6.792;2022-09-09T03:38:59;98234.31;;;16.28;100.00
26807;BME280;14380;49.910;6.792;2022-09-09T03:41:26;98248.00;;;16.13;100.00
26807;BME280;14380;49.910;6.792;2022-09-09T03:43:53;98243.22;;;16.17;100.00
26807;BME280;14380;49.910;6.792;2022-09-09T03:46:22;98240.72;;;16.15;100.00
26807;BME280;14380;49.910;6.792;2022-09-09T03:48:49;98248.88;;;16.24;100.00
26807;BME280;14380;49.910;6.792;2022-09-09T03:51:17;98254.03;;;16.15;100.00
26807;BME280;14380;49.910;6.792;2022-09-09T03:53:45;98251.00;;;15.99;100.00
26807;BME280;14380;49.910;6.792;2022-09-09T03:56:12;98246.31;;;16.12;100.00
26807;BME280;14380;49.910;6.792;2022-09-09T03:58:38;98256.75;;;16.35;100.00
26807;BME280;14380;49.910;6.792;2022-09-09T04:01:07;98246.16;;;16.14;100.00
26807;BME280;14380;49.910;6.792;2022-09-09T04:03:35;98256.25;;;16.10;100.00
26807;BME280;14380;49.910;6.792;2022-09-09T04:06:04;98248.63;;;16.27;100.00
26807;BME280;14380;49.910;6.792;2022-09-09T04:08:34;98245.84;;;16.38;100.00
26807;BME280;14380;49.910;6.792;2022-09-09T04:11:04;98248.34;;;16.30;100.00
26807;BME280;14380;49.910;6.792;2022-09-09T04:13:31;98246.78;;;16.27;100.00
26807;BME280;14380;49.910;6.792;2022-09-09T04:16:00;98245.25;;;16.25;100.00
26807;BME280;14380;49.910;6.792;2022-09-09T04:18:28;98243.34;;;16.05;100.00
26807;BME280;14380;49.910;6.792;2022-09-09T04:20:56;98240.84;;;16.14;100.00
26807;BME280;14380;49.910;6.792;2022-09-09T04:23:23;98248.94;;;16.02;100.00
26807;BME280;14380;49.910;6.792;2022-09-09T04:25:51;98249.00;;;16.22;100.00
26807;BME280;14380;49.910;6.792;2022-09-09T04:28:22;98253.72;;;16.09;100.00
26807;BME280;14380;49.910;6.792;2022-09-09T04:30:49;98249.22;;;16.09;100.00
26807;BME280;14380;49.910;6.792;2022-09-09T04:33:16;98253.31;;;16.13;100.00
26807;BME280;14380;49.910;6.792;2022-09-09T04:35:44;98248.94;;;16.02;100.00
26807;BME280;14380;49.910;6.792;2022-09-09T04:38:11;98248.53;;;16.07;100.00
26807;BME280;14380;49.910;6.792;2022-09-09T04:40:38;98255.69;;;16.07;100.00
26807;BME280;14380;49.910;6.792;2022-09-09T04:43:08;98261.75;;;16.18;100.00
26807;BME280;14380;49.910;6.792;2022-09-09T04:45:37;98257.09;;;16.11;100.00
26807;BME280;14380;49.910;6.792;2022-09-09T04:48:05;98267.34;;;16.15;100.00
26807;BME280;14380;49.910;6.792;2022-09-09T04:50:32;98262.75;;;16.17;100.00
26807;BME280;14380;49.910;6.792;2022-09-09T04:53:00;98269.25;;;16.03;100.00
26807;BME280;14380;49.910;6.792;2022-09-09T04:55:27;98274.06;;;16.10;100.00
26807;BME280;14380;49.910;6.792;2022-09-09T04:57:54;98259.63;;;16.12;100.00
26807;BME280;14380;49.910;6.792;2022-09-09T05:00:20;98269.03;;;16.16;100.00
26807;BME280;14380;49.910;6.792;2022-09-09T05:02:48;98266.16;;;16.29;100.00
26807;BME280;14380;49.910;6.792;2022-09-09T05:05:15;98272.97;;;16.22;100.00
26807;BME280;14380;49.910;6.792;2022-09-09T05:07:42;98280.25;;;16.20;100.00
26807;BME280;14380;49.910;6.792;2022-09-09T05:10:09;98279.91;;;16.03;100.00
26807;BME280;14380;49.910;6.792;2022-09-09T05:12:35;98277.59;;;16.20;100.00
26807;BME280;14380;49.910;6.792;2022-09-09T05:15:03;98281.94;;;16.21;100.00
26807;BME280;14380;49.910;6.792;2022-09-09T05:17:30;98292.34;;;16.24;100.00
26807;BME280;14380;49.910;6.792;2022-09-09T05:19:58;98284.97;;;16.07;100.00
26807;BME280;14380;49.910;6.792;2022-09-09T05:22:24;98288.72;;;16.04;100.00
26807;BME280;14380;49.910;6.792;2022-09-09T05:24:51;98288.63;;;16.05;100.00
26807;BME280;14380;49.910;6.792;2022-09-09T05:27:18;98289.41;;;16.27;100.00
26807;BME280;14380;49.910;6.792;2022-09-09T05:29:45;98287.28;;;16.21;100.00
26807;BME280;14380;49.910;6.792;2022-09-09T05:32:13;98281.59;;;16.35;100.00
26807;BME280;14380;49.910;6.792;2022-09-09T05:34:40;98287.19;;;16.01;100.00
26807;BME280;14380;49.910;6.792;2022-09-09T05:37:08;98285.72;;;16.18;100.00
26807;BME280;14380;49.910;6.792;2022-09-09T05:39:35;98289.75;;;16.13;100.00
26807;BME280;14380;49.910;6.792;2022-09-09T05:42:03;98288.13;;;16.22;100.00
26807;BME280;14380;49.910;6.792;2022-09-09T05:44:30;98288.88;;;16.33;100.00
26807;BME280;14380;49.910;6.792;2022-09-09T05:46:57;98294.88;;;16.26;100.00
26807;BME280;14380;49.910;6.792;2022-09-09T05:49:24;98296.75;;;16.14;100.00
26807;BME280;14380;49.910;6.792;2022-09-09T05:51:50;98291.47;;;16.45;100.00
26807;BME280;14380;49.910;6.792;2022-09-09T05:54:19;98296.06;;;16.12;100.00
26807;BME280;14380;49.910;6.792;2022-09-09T05:56:46;98286.22;;;16.33;100.00
26807;BME280;14380;49.910;6.792;2022-09-09T05:59:15;98289.56;;;16.26;100.00
26807;BME280;14380;49.910;6.792;2022-09-09T06:01:41;98287.22;;;16.42;100.00
26807;BME280;14380;49.910;6.792;2022-09-09T06:04:08;98286.13;;;16.45;100.00
26807;BME280;14380;49.910;6.792;2022-09-09T06:06:36;98285.53;;;16.41;100.00
26807;BME280;14380;49.910;6.792;2022-09-09T06:09:05;98295.44;;;16.60;100.00
26807;BME280;14380;49.910;6.792;2022-09-09T06:11:37;98282.09;;;16.60;100.00
26807;BME280;14380;49.910;6.792;2022-09-09T06:14:05;98277.91;;;16.68;100.00
26807;BME280;14380;49.910;6.792;2022-09-09T06:16:33;98284.38;;;16.65;100.00
26807;BME280;14380;49.910;6.792;2022-09-09T06:19:00;98290.03;;;16.82;100.00
26807;BME280;14380;49.910;6.792;2022-09-09T06:21:29;98281.50;;;16.47;100.00
26807;BME280;14380;49.910;6.792;2022-09-09T06:23:56;98284.78;;;16.60;100.00
26807;BME280;14380;49.910;6.792;2022-09-09T06:26:24;98282.09;;;16.60;100.00
26807;BME280;14380;49.910;6.792;2022-09-09T06:28:54;98287.31;;;16.62;100.00
26807;BME280;14380;49.910;6.792;2022-09-09T06:31:24;98279.50;;;16.70;100.00
26807;BME280;14380;49.910;6.792;2022-09-09T06:33:52;98285.41;;;16.84;100.00
26807;BME280;14380;49.910;6.792;2022-09-09T06:36:21;98282.03;;;16.82;100.00
26807;BME280;14380;49.910;6.792;2022-09-09T06:38:49;98282.81;;;17.03;100.00
26807;BME280;14380;49.910;6.792;2022-09-09T06:41:17;98279.06;;;16.75;100.00
26807;BME280;14380;49.910;6.792;2022-09-09T06:43:44;98290.41;;;16.67;100.00
26807;BME280;14380;49.910;6.792;2022-09-09T06:46:14;98280.38;;;16.90;100.00
26807;BME280;14380;49.910;6.792;2022-09-09T06:48:41;98275.78;;;16.61;100.00
26807;BME280;14380;49.910;6.792;2022-09-09T06:51:10;98282.53;;;16.65;100.00
26807;BME280;14380;49.910;6.792;2022-09-09T06:53:39;98284.28;;;16.86;100.00
26807;BME280;14380;49.910;6.792;2022-09-09T06:56:18;98284.66;;;17.32;100.00
26807;BME280;14380;49.910;6.792;2022-09-09T06:58:46;98269.34;;;17.15;100.00
26807;BME280;14380;49.910;6.792;2022-09-09T07:01:16;98282.13;;;17.70;100.00
26807;BME280;14380;49.910;6.792;2022-09-09T07:03:46;98284.09;;;17.38;100.00
26807;BME280;14380;49.910;6.792;2022-09-09T07:06:14;98282.56;;;17.56;100.00
26807;BME280;14380;49.910;6.792;2022-09-09T07:08:42;98293.53;;;17.33;100.00
26807;BME280;14380;49.910;6.792;2022-09-09T07:11:09;98297.03;;;17.23;100.00
26807;BME280;14380;49.910;6.792;2022-09-09T07:13:36;98295.00;;;16.96;100.00
26807;BME280;14380;49.910;6.792;2022-09-09T07:16:04;98308.56;;;16.83;100.00
26807;BME280;14380;49.910;6.792;2022-09-09T07:18:33;98301.19;;;16.65;100.00
26807;BME280;14380;49.910;6.792;2022-09-09T07:21:00;98303.13;;;16.94;100.00
26807;BME280;14380;49.910;6.792;2022-09-09T07:23:27;98309.00;;;16.88;100.00
26807;BME280;14380;49.910;6.792;2022-09-09T07:25:54;98300.03;;;16.89;100.00
26807;BME280;14380;49.910;6.792;2022-09-09T07:28:21;98297.72;;;17.35;100.00
26807;BME280;14380;49.910;6.792;2022-09-09T07:30:53;98303.91;;;17.56;100.00
26807;BME280;14380;49.910;6.792;2022-09-09T07:33:20;98307.13;;;17.79;100.00
26807;BME280;14380;49.910;6.792;2022-09-09T07:35:48;98296.13;;;17.92;100.00
26807;BME280;14380;49.910;6.792;2022-09-09T07:38:15;98295.06;;;17.65;100.00
26807;BME280;14380;49.910;6.792;2022-09-09T07:40:42;98304.47;;;17.20;100.00
26807;BME280;14380;49.910;6.792;2022-09-09T07:43:09;98300.41;;;17.65;100.00
26807;BME280;14380;49.910;6.792;2022-09-09T07:45:36;98303.88;;;17.95;100.00
26807;BME280;14380;49.910;6.792;2022-09-09T07:48:03;98303.53;;;18.27;100.00
26807;BME280;14380;49.910;6.792;2022-09-09T07:50:30;98302.03;;;18.81;100.00
26807;BME280;14380;49.910;6.792;2022-09-09T07:52:58;98307.72;;;18.40;100.00
26807;BME280;14380;49.910;6.792;2022-09-09T07:55:25;98308.47;;;18.32;100.00
26807;BME280;14380;49.910;6.792;2022-09-09T07:57:53;98311.72;;;18.16;100.00
26807;BME280;14380;49.910;6.792;2022-09-09T08:00:20;98311.13;;;18.32;100.00
26807;BME280;14380;49.910;6.792;2022-09-09T08:02:47;98308.34;;;18.24;100.00
26807;BME280;14380;49.910;6.792;2022-09-09T08:05:14;98325.78;;;17.89;100.00
26807;BME280;14380;49.910;6.792;2022-09-09T08:07:42;98323.16;;;17.30;100.00
26807;BME280;14380;49.910;6.792;2022-09-09T08:10:10;98327.38;;;17.42;100.00
26807;BME280;14380;49.910;6.792;2022-09-09T08:12:41;98330.19;;;17.60;100.00
26807;BME280;14380;49.910;6.792;2022-09-09T08:15:08;98318.78;;;17.48;100.00
26807;BME280;14380;49.910;6.792;2022-09-09T08:17:34;98318.66;;;17.40;100.00
26807;BME280;14380;49.910;6.792;2022-09-09T08:20:03;98319.22;;;17.53;100.00
26807;BME280;14380;49.910;6.792;2022-09-09T08:22:32;98316.13;;;17.78;100.00
26807;BME280;14380;49.910;6.792;2022-09-09T08:24:59;98318.38;;;18.02;100.00
26807;BME280;14380;49.910;6.792;2022-09-09T08:27:28;98324.53;;;18.12;100.00
26807;BME280;14380;49.910;6.792;2022-09-09T08:29:55;98321.63;;;18.43;100.00
26807;BME280;14380;49.910;6.792;2022-09-09T08:32:22;98315.91;;;18.28;100.00
26807;BME280;14380;49.910;6.792;2022-09-09T08:34:48;98327.53;;;18.00;100.00
26807;BME280;14380;49.910;6.792;2022-09-09T08:37:16;98325.78;;;18.28;100.00
26807;BME280;14380;49.910;6.792;2022-09-09T08:39:43;98322.38;;;18.36;100.00
26807;BME280;14380;49.910;6.792;2022-09-09T08:42:39;98327.84;;;18.34;100.00
26807;BME280;14380;49.910;6.792;2022-09-09T08:45:19;98331.75;;;18.50;100.00
26807;BME280;14380;49.910;6.792;2022-09-09T08:47:54;98332.25;;;18.63;100.00
26807;BME280;14380;49.910;6.792;2022-09-09T08:50:28;98341.34;;;18.42;100.00
26807;BME280;14380;49.910;6.792;2022-09-09T08:53:01;98338.66;;;18.42;100.00
26807;BME280;14380;49.910;6.792;2022-09-09T08:55:37;98343.13;;;18.04;100.00
26807;BME280;14380;49.910;6.792;2022-09-09T08:58:09;98339.00;;;18.20;100.00
26807;BME280;14380;49.910;6.792;2022-09-09T09:00:42;98345.88;;;18.32;100.00
26807;BME280;14380;49.910;6.792;2022-09-09T09:03:16;98337.09;;;18.50;100.00
26807;BME280;14380;49.910;6.792;2022-09-09T09:05:59;98334.97;;;19.19;100.00
26807;BME280;14380;49.910;6.792;2022-09-09T09:08:32;98346.75;;;18.98;100.00
26807;BME280;14380;49.910;6.792;2022-09-09T09:11:04;98357.63;;;18.87;100.00
26807;BME280;14380;49.910;6.792;2022-09-09T09:13:35;98346.44;;;18.36;100.00
26807;BME280;14380;49.910;6.792;2022-09-09T09:16:13;98356.84;;;18.19;100.00
26807;BME280;14380;49.910;6.792;2022-09-09T09:18:44;98352.22;;;17.92;100.00
26807;BME280;14380;49.910;6.792;2022-09-09T09:21:13;98352.09;;;17.93;100.00
26807;BME280;14380;49.910;6.792;2022-09-09T09:23:50;98359.56;;;18.09;100.00
26807;BME280;14380;49.910;6.792;2022-09-09T09:26:20;98355.19;;;17.79;100.00
26807;BME280;14380;49.910;6.792;2022-09-09T09:28:50;98350.16;;;17.86;100.00
26807;BME280;14380;49.910;6.792;2022-09-09T09:31:19;98338.06;;;18.01;100.00
26807;BME280;14380;49.910;6.792;2022-09-09T09:33:49;98343.53;;;18.09;100.00
26807;BME280;14380;49.910;6.792;2022-09-09T09:36:16;98340.66;;;18.31;100.00
26807;BME280;14380;49.910;6.792;2022-09-09T09:38:53;98341.25;;;19.28;100.00
26807;BME280;14380;49.910;6.792;2022-09-09T09:41:34;98343.53;;;19.23;100.00
26807;BME280;14380;49.910;6.792;2022-09-09T09:44:04;98348.00;;;19.04;100.00
26807;BME280;14380;49.910;6.792;2022-09-09T09:46:31;98333.78;;;19.04;100.00
26807;BME280;14380;49.910;6.792;2022-09-09T09:48:59;98344.75;;;18.72;100.00
26807;BME280;14380;49.910;6.792;2022-09-09T09:51:28;98342.44;;;18.87;100.00
26807;BME280;14380;49.910;6.792;2022-09-09T09:54:06;98340.88;;;18.57;100.00
26807;BME280;14380;49.910;6.792;2022-09-09T09:56:35;98342.63;;;18.28;100.00
26807;BME280;14380;49.910;6.792;2022-09-09T09:59:04;98337.03;;;18.22;100.00
26807;BME280;14380;49.910;6.792;2022-09-09T10:01:32;98339.31;;;18.07;100.00
26807;BME280;14380;49.910;6.792;2022-09-09T10:04:01;98331.09;;;18.38;100.00
26807;BME280;14380;49.910;6.792;2022-09-09T10:06:33;98337.63;;;18.63;100.00
26807;BME280;14380;49.910;6.792;2022-09-09T10:09:01;98332.34;;;19.09;100.00
26807;BME280;14380;49.910;6.792;2022-09-09T10:11:43;98321.13;;;19.24;100.00
26807;BME280;14380;49.910;6.792;2022-09-09T10:14:19;98323.66;;;19.80;100.00
26807;BME280;14380;49.910;6.792;2022-09-09T10:16:56;98338.88;;;19.43;100.00
26807;BME280;14380;49.910;6.792;2022-09-09T10:19:31;98326.75;;;19.02;100.00
26807;BME280;14380;49.910;6.792;2022-09-09T10:22:15;98324.16;;;19.11;100.00
26807;BME280;14380;49.910;6.792;2022-09-09T10:25:03;98327.38;;;18.86;100.00
26807;BME280;14380;49.910;6.792;2022-09-09T10:27:39;98326.50;;;18.86;100.00
26807;BME280;14380;49.910;6.792;2022-09-09T10:30:16;98312.22;;;18.77;100.00
26807;BME280;14380;49.910;6.792;2022-09-09T10:32:49;98319.03;;;18.99;100.00
26807;BME280;14380;49.910;6.792;2022-09-09T10:35:30;98312.19;;;19.33;100.00
26807;BME280;14380;49.910;6.792;2022-09-09T10:38:19;98308.44;;;19.62;100.00
26807;BME280;14380;49.910;6.792;2022-09-09T10:41:03;98301.44;;;19.87;100.00
26807;BME280;14380;49.910;6.792;2022-09-09T10:43:48;98302.00;;;20.17;100.00
26807;BME280;14380;49.910;6.792;2022-09-09T10:46:23;98304.72;;;20.52;100.00
26807;BME280;14380;49.910;6.792;2022-09-09T10:49:05;98302.75;;;20.28;100.00
26807;BME280;14380;49.910;6.792;2022-09-09T10:51:42;98304.38;;;20.20;100.00
26807;BME280;14380;49.910;6.792;2022-09-09T10:54:24;98296.25;;;20.12;100.00
26807;BME280;14380;49.910;6.792;2022-09-09T10:56:58;98293.94;;;20.44;100.00
26807;BME280;14380;49.910;6.792;2022-09-09T10:59:29;98297.94;;;20.74;100.00
26807;BME280;14380;49.910;6.792;2022-09-09T11:02:02;98289.97;;;20.21;99.88
26807;BME280;14380;49.910;6.792;2022-09-09T11:04:35;98286.69;;;20.71;96.59
26807;BME280;14380;49.910;6.792;2022-09-09T11:07:07;98288.47;;;20.97;91.67
26807;BME280;14380;49.910;6.792;2022-09-09T11:09:39;98277.72;;;20.88;94.57
26807;BME280;14380;49.910;6.792;2022-09-09T11:12:12;98282.41;;;20.86;94.27
26807;BME280;14380;49.910;6.792;2022-09-09T11:14:43;98283.16;;;21.05;96.67
26807;BME280;14380;49.910;6.792;2022-09-09T11:17:15;98271.75;;;21.28;95.68
26807;BME280;14380;49.910;6.792;2022-09-09T11:19:44;98269.59;;;21.56;93.56
26807;BME280;14380;49.910;6.792;2022-09-09T11:22:21;98267.59;;;21.58;89.71
26807;BME280;14380;49.910;6.792;2022-09-09T11:24:54;98270.31;;;21.66;87.74
26807;BME280;14380;49.910;6.792;2022-09-09T11:27:25;98277.88;;;21.63;89.30
26807;BME280;14380;49.910;6.792;2022-09-09T11:30:14;98267.81;;;20.80;90.56
26807;BME280;14380;49.910;6.792;2022-09-09T11:33:12;98272.41;;;21.05;91.02
26807;BME280;14380;49.910;6.792;2022-09-09T11:35:56;98273.56;;;20.94;88.91
26807;BME280;14380;49.910;6.792;2022-09-09T11:38:28;98264.72;;;20.67;93.66
26807;BME280;14380;49.910;6.792;2022-09-09T11:40:58;98261.50;;;21.15;95.34
26807;BME280;14380;49.910;6.792;2022-09-09T11:43:29;98261.56;;;21.31;92.88
26807;BME280;14380;49.910;6.792;2022-09-09T11:45:59;98260.41;;;21.75;90.09
26807;BME280;14380;49.910;6.792;2022-09-09T11:48:39;98256.69;;;21.68;86.62
26807;BME280;14380;49.910;6.792;2022-09-09T11:51:10;98256.94;;;22.23;84.37
26807;BME280;14380;49.910;6.792;2022-09-09T11:53:47;98260.84;;;22.20;84.80
26807;BME280;14380;49.910;6.792;2022-09-09T11:56:24;98253.50;;;21.56;84.25
26807;BME280;14380;49.910;6.792;2022-09-09T11:59:00;98252.31;;;21.17;84.16
26807;BME280;14380;49.910;6.792;2022-09-09T12:01:35;98250.03;;;20.79;84.64
26807;BME280;14380;49.910;6.792;2022-09-09T12:04:16;98259.66;;;20.64;86.38
26807;BME280;14380;49.910;6.792;2022-09-09T12:06:46;98268.06;;;20.69;85.73
26807;BME280;14380;49.910;6.792;2022-09-09T12:09:23;98260.88;;;20.35;89.21
26807;BME280;14380;49.910;6.792;2022-09-09T12:11:52;98261.22;;;20.75;91.76
26807;BME280;14380;49.910;6.792;2022-09-09T12:14:23;98256.84;;;21.42;88.32
26807;BME280;14380;49.910;6.792;2022-09-09T12:17:09;98252.13;;;21.93;84.73
26807;BME280;14380;49.910;6.792;2022-09-09T12:19:38;98245.59;;;21.96;81.21
26807;BME280;14380;49.910;6.792;2022-09-09T12:22:07;98240.69;;;22.08;82.82
26807;BME280;14380;49.910;6.792;2022-09-09T12:24:44;98251.22;;;22.34;82.78
26807;BME280;14380;49.910;6.792;2022-09-09T12:27:18;98251.63;;;22.63;83.66
26807;BME280;14380;49.910;6.792;2022-09-09T12:29:51;98262.22;;;21.99;82.52
26807;BME280;14380;49.910;6.792;2022-09-09T12:32:24;98248.31;;;21.79;82.45
26807;BME280;14380;49.910;6.792;2022-09-09T12:34:55;98246.44;;;21.47;82.07
26807;BME280;14380;49.910;6.792;2022-09-09T12:37:27;98250.13;;;21.21;81.58
26807;BME280;14380;49.910;6.792;2022-09-09T12:39:56;98248.28;;;21.46;83.10
26807;BME280;14380;49.910;6.792;2022-09-09T12:42:25;98240.03;;;21.97;85.22
26807;BME280;14380;49.910;6.792;2022-09-09T12:44:56;98234.16;;;22.02;82.80
26807;BME280;14380;49.910;6.792;2022-09-09T12:47:28;98227.97;;;21.44;80.20
26807;BME280;14380;49.910;6.792;2022-09-09T12:49:58;98233.00;;;21.47;83.76
26807;BME280;14380;49.910;6.792;2022-09-09T12:52:28;98225.94;;;21.87;83.13
26807;BME280;14380;49.910;6.792;2022-09-09T12:54:57;98227.69;;;22.28;81.58
26807;BME280;14380;49.910;6.792;2022-09-09T12:57:33;98218.03;;;22.02;80.34
26807;BME280;14380;49.910;6.792;2022-09-09T13:00:07;98218.06;;;21.61;83.11
26807;BME280;14380;49.910;6.792;2022-09-09T13:02:46;98221.75;;;21.84;82.27
26807;BME280;14380;49.910;6.792;2022-09-09T13:05:16;98219.53;;;22.05;83.03
26807;BME280;14380;49.910;6.792;2022-09-09T13:07:43;98222.44;;;21.87;81.52
26807;BME280;14380;49.910;6.792;2022-09-09T13:10:11;98217.16;;;22.10;82.22
26807;BME280;14380;49.910;6.792;2022-09-09T13:12:42;98218.53;;;21.89;81.15
26807;BME280;14380;49.910;6.792;2022-09-09T13:15:22;98213.56;;;21.36;81.22